createdAt,value
2018-12-06T00:01:30.301Z,101020.20
2018-12-06T00:04:06.084Z,101028.05
2018-12-06T00:06:41.798Z,101033.17
2018-12-06T00:09:17.206Z,101032.78
2018-12-06T00:11:53.000Z,101042.54
2018-12-06T00:14:28.816Z,101037.89
2018-12-06T00:17:04.671Z,101039.31
2018-12-06T00:19:41.237Z,101046.09
2018-12-06T00:22:16.688Z,101046.56
2018-12-06T00:24:52.686Z,101044.78
2018-12-06T00:27:28.366Z,101040.60
2018-12-06T00:30:03.554Z,101045.58
2018-12-06T00:32:39.085Z,101043.55
2018-12-06T00:35:14.318Z,101055.60
2018-12-06T00:37:50.761Z,101049.52
2018-12-06T00:40:26.034Z,101055.13
2018-12-06T00:43:01.462Z,101066.45
2018-12-06T00:45:37.449Z,101065.86
2018-12-06T00:48:13.183Z,101055.66
2018-12-06T00:50:48.644Z,101067.27
2018-12-06T00:53:24.172Z,101078.30
2018-12-06T00:55:59.429Z,101082.95
2018-12-06T00:58:34.474Z,101082.99
2018-12-06T01:01:10.314Z,101094.09
2018-12-06T01:03:46.084Z,101104.30
2018-12-06T01:06:21.836Z,101109.70
2018-12-06T01:08:58.883Z,101109.58
2018-12-06T01:11:35.644Z,101117.22
2018-12-06T01:14:11.286Z,101129.19
2018-12-06T01:16:47.128Z,101135.88
2018-12-06T01:19:23.561Z,101141.75
2018-12-06T01:21:59.843Z,101145.25
2018-12-06T01:24:35.518Z,101138.28
2018-12-06T01:27:11.437Z,101141.66
2018-12-06T01:29:46.801Z,101144.88
2018-12-06T01:32:22.917Z,101146.83
2018-12-06T01:34:59.284Z,101152.83
2018-12-06T01:37:34.671Z,101158.81
2018-12-06T01:40:10.263Z,101158.98
2018-12-06T01:42:45.631Z,101168.30
2018-12-06T01:45:21.610Z,101177.06
2018-12-06T01:47:57.207Z,101177.66
2018-12-06T01:50:32.757Z,101174.56
2018-12-06T01:53:08.162Z,101180.09
2018-12-06T01:55:43.998Z,101180.11
2018-12-06T01:58:19.722Z,101176.65
2018-12-06T02:00:56.027Z,101181.91
2018-12-06T02:03:31.472Z,101179.16
2018-12-06T02:06:07.389Z,101186.09
2018-12-06T02:08:43.064Z,101181.66
2018-12-06T02:11:19.404Z,101180.70
2018-12-06T02:13:54.914Z,101192.54
2018-12-06T02:16:30.103Z,101198.98
2018-12-06T02:19:05.087Z,101208.69
2018-12-06T02:21:40.842Z,101210.45
2018-12-06T02:24:16.742Z,101214.88
2018-12-06T02:26:52.182Z,101220.48
2018-12-06T02:29:27.806Z,101217.97
2018-12-06T02:32:04.045Z,101224.93
2018-12-06T02:34:41.034Z,101231.11
2018-12-06T02:37:16.669Z,101230.88
2018-12-06T02:39:53.171Z,101240.44
2018-12-06T02:42:29.921Z,101243.89
2018-12-06T02:45:05.393Z,101243.75
2018-12-06T02:47:41.205Z,101247.54
2018-12-06T02:50:16.886Z,101251.09
2018-12-06T02:52:52.844Z,101244.75
2018-12-06T02:55:28.644Z,101254.81
2018-12-06T02:58:04.636Z,101256.42
2018-12-06T03:00:40.107Z,101261.52
2018-12-06T03:03:15.610Z,101262.99
2018-12-06T03:05:51.203Z,101271.41
2018-12-06T03:08:26.878Z,101268.49
2018-12-06T03:11:01.961Z,101271.75
2018-12-06T03:13:37.634Z,101277.55
2018-12-06T03:16:12.641Z,101276.72
2018-12-06T03:18:48.047Z,101280.21
2018-12-06T03:21:23.445Z,101280.92
2018-12-06T03:23:59.323Z,101283.27
2018-12-06T03:26:35.136Z,101290.02
2018-12-06T03:29:10.751Z,101288.17
2018-12-06T03:31:52.558Z,101285.83
2018-12-06T03:34:48.396Z,101289.64
2018-12-06T03:37:23.840Z,101283.45
2018-12-06T03:53:31.513Z,101276.78
2018-12-06T03:56:07.228Z,101275.72
2018-12-06T03:58:42.582Z,101279.55
2018-12-06T04:01:19.596Z,101279.09
2018-12-06T04:03:55.251Z,101284.98
2018-12-06T04:06:30.732Z,101273.58
2018-12-06T04:09:06.418Z,101268.67
2018-12-06T04:11:42.083Z,101272.45
2018-12-06T04:14:17.971Z,101265.60
2018-12-06T04:16:53.519Z,101259.17
2018-12-06T04:19:29.490Z,101265.36
2018-12-06T04:22:04.687Z,101261.34
2018-12-06T04:24:40.969Z,101259.10
2018-12-06T04:27:16.504Z,101257.11
2018-12-06T04:29:51.791Z,101259.06
2018-12-06T04:32:26.958Z,101251.96
2018-12-06T04:35:02.219Z,101249.53
2018-12-06T04:37:37.676Z,101245.22
2018-12-06T04:40:12.387Z,101242.03
2018-12-06T04:42:47.510Z,101241.16
2018-12-06T04:45:23.263Z,101239.33
2018-12-06T04:47:58.608Z,101233.02
2018-12-06T04:50:33.958Z,101237.20
2018-12-06T04:53:09.839Z,101227.21
2018-12-06T04:55:45.065Z,101219.22
2018-12-06T04:58:20.517Z,101214.23
2018-12-06T05:00:55.853Z,101213.19
2018-12-06T05:03:31.316Z,101201.76
2018-12-06T05:06:06.725Z,101194.95
2018-12-06T05:08:42.239Z,101188.01
2018-12-06T05:11:17.807Z,101183.19
2018-12-06T05:13:53.294Z,101178.17
2018-12-06T05:16:28.910Z,101179.97
2018-12-06T05:19:04.444Z,101175.61
2018-12-06T05:21:40.122Z,101163.05
2018-12-06T05:24:15.447Z,101166.41
2018-12-06T05:26:50.265Z,101159.96
2018-12-06T05:29:25.444Z,101160.34
2018-12-06T05:32:00.403Z,101154.09
2018-12-06T05:34:35.637Z,101155.79
2018-12-06T05:37:11.037Z,101153.74
2018-12-06T05:39:46.251Z,101146.66
2018-12-06T05:42:21.776Z,101145.78
2018-12-06T05:44:57.467Z,101135.45
2018-12-06T05:47:33.007Z,101137.16
2018-12-06T05:50:08.883Z,101129.77
2018-12-06T05:52:44.607Z,101120.47
2018-12-06T05:55:20.171Z,101118.48
2018-12-06T05:57:55.845Z,101112.02
2018-12-06T06:01:51.738Z,101102.32
2018-12-06T06:04:27.926Z,101097.95
2018-12-06T06:07:03.198Z,101089.86
2018-12-06T06:09:38.892Z,101082.39
2018-12-06T06:12:15.049Z,101083.31
2018-12-06T06:14:50.898Z,101071.55
2018-12-06T06:17:26.404Z,101066.66
2018-12-06T06:20:01.965Z,101057.75
2018-12-06T06:22:37.456Z,101049.11
2018-12-06T06:25:13.012Z,101050.11
2018-12-06T06:27:48.507Z,101051.30
2018-12-06T06:30:24.322Z,101045.09
2018-12-06T06:32:59.934Z,101045.41
2018-12-06T06:35:35.479Z,101037.29
2018-12-06T17:14:59.537Z,101092.78
2018-12-06T17:17:39.679Z,101097.49
2018-12-06T17:20:20.370Z,101105.61
2018-12-06T17:23:01.167Z,101092.81
2018-12-06T17:25:41.711Z,101090.95
2018-12-06T17:28:22.386Z,101093.25
2018-12-06T17:31:03.538Z,101097.11
2018-12-06T17:33:44.109Z,101089.31
2018-12-06T17:36:24.583Z,101086.60
2018-12-06T17:39:05.805Z,101094.56
2018-12-06T17:41:47.043Z,101084.12
2018-12-06T17:44:27.550Z,101080.57
2018-12-06T17:47:08.424Z,101082.00
2018-12-06T17:49:48.837Z,101079.09
2018-12-06T17:52:29.199Z,101067.63
2018-12-06T17:55:12.222Z,101064.67
2018-12-06T17:57:57.548Z,101062.38
2018-12-06T18:00:38.393Z,101057.81
2018-12-06T18:03:19.344Z,101051.81
2018-12-06T18:06:00.182Z,101054.00
2018-12-06T18:08:40.997Z,101048.06
2018-12-06T18:11:21.749Z,101042.52
2018-12-06T18:14:02.582Z,101047.61
2018-12-06T18:16:43.541Z,101052.66
2018-12-06T18:19:24.260Z,101054.47
2018-12-06T18:22:05.464Z,101057.59
2018-12-06T18:24:46.430Z,101061.52
2018-12-06T18:27:27.384Z,101056.83
2018-12-06T18:30:07.988Z,101059.61
2018-12-06T18:32:48.781Z,101056.04
2018-12-06T18:35:29.627Z,101056.67
2018-12-06T18:38:10.470Z,101049.17
2018-12-06T18:40:51.222Z,101043.53
2018-12-06T18:43:31.875Z,101059.27
2018-12-06T18:46:12.828Z,101069.56
2018-12-06T18:48:53.533Z,101064.16
2018-12-06T18:51:35.156Z,101055.84
2018-12-06T18:54:15.815Z,101054.25
2018-12-06T18:56:56.549Z,101044.48
2018-12-06T18:59:37.231Z,101039.59
2018-12-06T19:02:18.274Z,101046.50
2018-12-06T19:04:59.265Z,101049.95
2018-12-06T19:07:40.229Z,101047.09
2018-12-06T19:10:20.702Z,101039.58
2018-12-06T19:13:01.261Z,101049.48
2018-12-06T19:15:41.853Z,101052.33
2018-12-06T19:18:23.058Z,101051.58
2018-12-06T19:21:03.262Z,101053.16
2018-12-06T19:23:43.833Z,101047.77
2018-12-06T19:26:24.068Z,101041.21
2018-12-06T19:29:04.675Z,101041.41
2018-12-06T19:31:45.432Z,101042.05
2018-12-06T19:34:26.478Z,101051.45
2018-12-06T19:37:07.263Z,101061.60
2018-12-06T19:39:48.194Z,101053.18
2018-12-06T19:42:28.504Z,101054.37
2018-12-06T19:45:08.984Z,101060.45
2018-12-06T19:47:50.110Z,101059.97
2018-12-06T19:50:30.752Z,101056.75
2018-12-06T19:53:11.362Z,101049.95
2018-12-06T19:55:51.583Z,101047.83
2018-12-06T19:58:32.388Z,101056.00
2018-12-06T20:01:12.669Z,101055.44
2018-12-06T20:03:53.714Z,101059.20
2018-12-06T20:06:34.277Z,101053.21
2018-12-06T20:09:15.160Z,101046.86
2018-12-06T20:11:56.225Z,101050.37
2018-12-06T20:14:37.143Z,101054.25
2018-12-06T20:17:18.188Z,101054.15
2018-12-06T20:19:59.064Z,101053.25
2018-12-06T20:22:39.827Z,101055.02
2018-12-06T20:25:20.665Z,101051.92
2018-12-06T20:28:01.633Z,101050.03
2018-12-06T20:30:42.642Z,101049.20
2018-12-06T20:33:23.887Z,101043.17
2018-12-06T20:36:04.824Z,101035.69
2018-12-06T20:38:46.180Z,101031.30
2018-12-06T20:41:27.396Z,101036.98
2018-12-06T20:44:08.032Z,101033.09
2018-12-06T20:46:48.996Z,101023.48
2018-12-06T20:49:29.941Z,101014.70
2018-12-06T20:52:10.912Z,101013.72
2018-12-06T20:54:52.224Z,101012.89
2018-12-06T20:57:37.224Z,101013.36
2018-12-06T21:00:14.107Z,101010.80
2018-12-06T21:02:55.469Z,101010.02
2018-12-06T21:05:36.354Z,101004.72
2018-12-06T21:08:17.096Z,101006.39
2018-12-06T21:10:57.624Z,101010.69
2018-12-06T21:13:38.313Z,101011.94
2018-12-06T21:16:19.311Z,101012.27
2018-12-06T21:19:00.075Z,101007.88
2018-12-06T21:21:40.629Z,101006.52
2018-12-06T21:24:21.906Z,101006.93
2018-12-06T21:27:02.748Z,101005.98
2018-12-06T21:29:44.344Z,101007.41
2018-12-06T21:32:25.025Z,101007.52
2018-12-06T21:35:06.121Z,101005.81
2018-12-06T21:37:47.228Z,101003.88
2018-12-06T21:40:28.053Z,100995.67
2018-12-06T21:43:08.719Z,100995.73
2018-12-06T21:45:49.397Z,100994.86
2018-12-06T21:48:30.149Z,100987.22
2018-12-06T21:51:10.302Z,100993.94
2018-12-06T21:53:50.265Z,100988.78
2018-12-06T21:56:31.077Z,100984.66
2018-12-06T21:59:11.469Z,100980.93
2018-12-06T22:01:52.254Z,100987.95
2018-12-06T22:04:33.305Z,100988.42
2018-12-06T22:07:13.954Z,100989.18
2018-12-06T22:09:54.974Z,100990.93
2018-12-06T22:12:35.866Z,100986.56
2018-12-06T22:15:16.929Z,100979.48
2018-12-06T22:17:57.894Z,100983.41
2018-12-06T22:20:39.083Z,100982.30
2018-12-06T22:23:20.358Z,100982.34
2018-12-06T22:26:01.627Z,100980.93
2018-12-06T22:28:42.708Z,100981.52
2018-12-06T22:31:23.372Z,100986.70
2018-12-06T22:34:04.509Z,100987.23
2018-12-06T22:36:45.537Z,100982.87
2018-12-06T22:39:25.915Z,100992.81
2018-12-06T22:42:07.398Z,100995.66
2018-12-06T22:44:48.433Z,100995.61
2018-12-06T22:47:29.305Z,100990.38
2018-12-06T22:50:09.785Z,100994.08
2018-12-06T22:52:50.874Z,100994.91
2018-12-06T22:55:31.550Z,100993.60
2018-12-06T22:58:12.834Z,100999.69
2018-12-06T23:00:53.224Z,101008.21
2018-12-06T23:03:33.822Z,101015.70
2018-12-06T23:06:14.799Z,101021.59
2018-12-06T23:08:55.707Z,101021.53
2018-12-06T23:11:36.759Z,101028.94
2018-12-06T23:14:17.631Z,101030.24
2018-12-06T23:16:58.593Z,101024.64
2018-12-06T23:19:39.948Z,101032.65
2018-12-06T23:22:20.987Z,101041.16
2018-12-06T23:25:01.757Z,101041.09
2018-12-06T23:27:42.796Z,101044.55
2018-12-06T23:30:23.221Z,101041.92
2018-12-06T23:33:04.145Z,101046.10
2018-12-06T23:35:45.312Z,101050.31
2018-12-06T23:38:25.679Z,101050.94
2018-12-06T23:41:06.637Z,101054.28
2018-12-06T23:43:47.617Z,101061.66
2018-12-06T23:46:28.824Z,101055.27
2018-12-06T23:49:09.784Z,101060.25
2018-12-06T23:51:50.833Z,101065.02
2018-12-06T23:54:31.832Z,101071.11
2018-12-06T23:57:13.092Z,101069.88
2018-12-06T23:59:53.667Z,101067.84
